Time;durP1;ratioP1;P1;durP2;ratioP2;P2;SDS_P1;SDS_P2;PMS_P1;PMS_P2;Temp;Humidity;BMP_temperature;BMP_pressure;BME280_temperature;BME280_humidity;BME280_pressure;Samples;Min_cycle;Max_cycle;Signal;HPM_P1;HPM_P2
2021/12/01 00:10:28;;;;;;;55.63;18.10;;;8.70;99.90;;;;;;4916006;23;20554;-92
2021/12/01 00:13:33;;;;;;;;;;;;;;;;;;;;;
2021/12/01 00:16:48;;;;;;;53.42;20.23;;;9.10;99.90;;;;;;4860649;29;20049;-92
2021/12/01 00:35:39;;;;;;;72.97;26.10;;;9.10;99.90;;;;;;5207887;23;20093;-91
2021/12/01 00:38:35;;;;;;;72.95;29.23;;;9.10;99.90;;;;;;4892194;29;20057;-92
2021/12/01 00:41:20;;;;;;;69.97;28.08;;;9.30;99.90;;;;;;4882584;29;20053;-92
2021/12/01 00:44:07;;;;;;;81.50;31.58;;;9.80;99.90;;;;;;4883975;29;20100;-92
2021/12/01 00:46:57;;;;;;;67.47;27.85;;;9.60;99.90;;;;;;4866796;29;20048;-91
2021/12/01 00:49:48;;;;;;;78.63;29.92;;;9.50;99.90;;;;;;4867353;29;20053;-91
2021/12/01 00:52:33;;;;;;;;;;;;;;;;;;;;;
2021/12/01 00:55:26;;;;;;;70.38;30.17;;;9.10;99.90;;;;;;4898861;29;20056;-91
2021/12/01 00:58:53;;;;;;;73.40;31.08;;;9.10;99.90;;;;;;4866668;29;20144;-91
2021/12/01 01:01:58;;;;;;;65.80;30.33;;;9.20;99.90;;;;;;4880014;29;20059;-91
2021/12/01 01:05:07;;;;;;;;;;;;;;;;;;;;;
2021/12/01 01:07:55;;;;;;;;;;;;;;;;;;;;;
2021/12/01 01:17:14;;;;;;;62.55;28.48;;;9.70;99.90;;;;;;4896455;29;20060;-91
2021/12/01 01:20:16;;;;;;;55.30;24.88;;;9.10;99.90;;;;;;4880466;29;20116;-91
2021/12/01 01:23:08;;;;;;;51.03;24.50;;;9.10;99.90;;;;;;4862884;29;20084;-91
2021/12/01 01:25:39;;;;;;;54.53;25.30;;;9.40;99.90;;;;;;4881020;29;20116;-91
2021/12/01 01:28:08;;;;;;;51.78;23.60;;;9.40;99.90;;;;;;4870995;29;20044;-92
2021/12/01 01:31:01;;;;;;;48.63;22.73;;;9.60;99.90;;;;;;4881213;29;20053;-91
2021/12/01 01:33:45;;;;;;;43.30;22.60;;;9.50;99.90;;;;;;4865700;29;20041;-91
2021/12/01 01:36:14;;;;;;;36.22;18.00;;;9.70;99.90;;;;;;4879499;29;20037;-92
2021/12/01 01:38:55;;;;;;;41.53;21.45;;;8.90;99.90;;;;;;4879626;29;20049;-91
2021/12/01 01:41:36;;;;;;;37.20;19.63;;;10.20;99.90;;;;;;4863569;29;20487;-91
2021/12/01 01:44:02;;;;;;;29.88;15.30;;;9.20;99.90;;;;;;4864985;29;20076;-90
2021/12/01 01:47:26;;;;;;;32.33;15.63;;;9.80;99.90;;;;;;4863410;29;20117;-90
2021/12/01 01:53:36;;;;;;;28.88;13.57;;;9.30;99.90;;;;;;4892884;29;20117;-91
2021/12/01 01:56:22;;;;;;;22.02;12.25;;;9.30;99.90;;;;;;4876971;29;20092;-90
2021/12/01 01:58:51;;;;;;;19.03;10.53;;;9.40;99.90;;;;;;4893325;29;20120;-91
2021/12/01 02:01:44;;;;;;;15.10;7.80;;;9.20;99.90;;;;;;4863171;29;20056;-91
2021/12/01 02:04:27;;;;;;;11.13;6.25;;;9.30;99.90;;;;;;4877468;29;20068;-90
2021/12/01 02:06:57;;;;;;;12.15;6.00;;;9.60;99.90;;;;;;4877127;29;20081;-90
2021/12/01 02:09:37;;;;;;;10.75;4.60;;;8.70;99.90;;;;;;4865048;29;20041;-90
2021/12/01 02:12:14;;;;;;;10.38;3.90;;;9.70;99.90;;;;;;4880288;29;20064;-90
2021/12/01 02:14:47;;;;;;;10.77;4.35;;;9.30;99.90;;;;;;4880092;29;20041;-91
2021/12/01 02:17:16;;;;;;;12.07;3.63;;;9.20;99.90;;;;;;4878426;29;20064;-91
2021/12/01 02:19:45;;;;;;;12.88;5.60;;;9.50;99.90;;;;;;4878789;29;20056;-90
2021/12/01 02:39:24;;;;;;;12.57;6.15;;;9.30;99.90;;;;;;4945428;29;20066;-91
2021/12/01 02:42:17;;;;;;;6.22;3.80;;;9.00;99.90;;;;;;4914885;29;20052;-92
2021/12/01 02:45:13;;;;;;;10.90;4.72;;;8.80;99.90;;;;;;4928445;29;20058;-91
2021/12/01 02:47:42;;;;;;;8.13;3.90;;;9.30;99.90;;;;;;4920854;29;20058;-92
2021/12/01 02:53:44;;;;;;;5.28;2.83;;;9.70;99.90;;;;;;4884919;29;20064;-91
2021/12/01 03:01:32;;;;;;;;;;;;;;;;;;;;;
2021/12/01 03:04:01;;;;;;;5.72;2.65;;;9.60;99.90;;;;;;4931726;29;20111;-91
2021/12/01 03:11:36;;;;;;;5.82;2.47;;;9.00;99.90;;;;;;4879445;29;20086;-90
2021/12/01 03:14:56;;;;;;;5.78;2.33;;;9.60;99.90;;;;;;4862016;29;20055;-91
2021/12/01 03:17:53;;;;;;;4.93;1.70;;;8.90;99.90;;;;;;4844215;29;20109;-91
2021/12/01 03:20:28;;;;;;;8.33;1.83;;;9.60;99.90;;;;;;4841456;29;20191;-91
2021/12/01 03:27:17;;;;;;;4.18;1.58;;;9.50;99.90;;;;;;4876296;29;20057;-90
2021/12/01 03:30:45;;;;;;;6.25;2.90;;;10.30;99.90;;;;;;4860019;29;20056;-91
2021/12/01 03:40:41;;;;;;;5.80;1.95;;;9.30;99.90;;;;;;4830179;29;20117;-90
2021/12/01 03:46:34;;;;;;;4.97;0.93;;;11.00;99.90;;;;;;4931239;29;20055;-90
2021/12/01 03:49:03;;;;;;;10.75;1.70;;;10.00;99.90;;;;;;4916507;29;20048;-90
2021/12/01 03:51:29;;;;;;;5.65;1.27;;;9.60;99.90;;;;;;4917443;29;20051;-91
2021/12/01 03:54:08;;;;;;;7.15;1.33;;;10.10;99.90;;;;;;4915856;29;20107;-90
2021/12/01 03:56:50;;;;;;;10.52;1.65;;;9.60;99.90;;;;;;4916715;29;20059;-90
2021/12/01 04:06:25;;;;;;;8.80;2.13;;;9.60;99.90;;;;;;4937138;29;20055;-90
2021/12/01 04:09:29;;;;;;;;;;;;;;;;;;;;;
2021/12/01 04:12:34;;;;;;;19.60;3.97;;;9.50;99.90;;;;;;4938002;29;20047;-91
2021/12/01 04:15:41;;;;;;;13.55;3.47;;;9.80;99.90;;;;;;4925013;29;20095;-91
2021/12/01 04:18:25;;;;;;;13.68;2.60;;;9.50;99.90;;;;;;4924857;29;20032;-90
2021/12/01 04:20:57;;;;;;;10.20;3.17;;;9.50;99.90;;;;;;4927026;28;20044;-90
2021/12/01 04:23:57;;;;;;;16.05;3.08;;;9.40;99.90;;;;;;4927204;28;20035;-91
2021/12/01 04:30:10;;;;;;;11.52;3.05;;;9.40;99.90;;;;;;4893292;29;20041;-90
2021/12/01 04:32:40;;;;;;;11.07;3.20;;;9.50;99.90;;;;;;4858844;29;20054;-90
2021/12/01 04:35:29;;;;;;;7.55;2.58;;;9.40;99.90;;;;;;4812856;29;20053;-90
2021/12/01 04:38:16;;;;;;;7.45;2.40;;;10.00;99.90;;;;;;4813654;29;20093;-90
2021/12/01 04:40:56;;;;;;;8.20;2.42;;;8.90;99.90;;;;;;4813901;29;20090;-90
2021/12/01 04:43:37;;;;;;;6.45;3.13;;;9.30;99.90;;;;;;4826877;29;20065;-90
2021/12/01 04:46:15;;;;;;;6.70;3.10;;;9.90;99.90;;;;;;4841738;29;20030;-91
2021/12/01 04:48:47;;;;;;;4.93;2.60;;;8.90;99.90;;;;;;4846161;29;20089;-90
2021/12/01 04:51:31;;;;;;;7.00;2.90;;;9.10;99.90;;;;;;4845448;29;20096;-90
2021/12/01 04:54:02;;;;;;;9.10;3.45;;;9.40;99.90;;;;;;4829970;29;20067;-90
2021/12/01 04:56:39;;;;;;;9.90;3.25;;;9.40;99.90;;;;;;4830139;29;20049;-90
2021/12/01 04:59:13;;;;;;;;;;;9.40;99.90;;;;;;4830599;29;20042;-89
2021/12/01 05:01:43;;;;;;;7.63;3.70;;;8.80;99.90;;;;;;4846698;29;19909;-90
2021/12/01 05:04:27;;;;;;;8.73;3.65;;;9.30;99.90;;;;;;4871776;29;20048;-90
2021/12/01 05:07:51;;;;;;;6.88;2.45;;;9.30;99.90;;;;;;4902434;29;20613;-90
2021/12/01 05:10:25;;;;;;;4.53;2.20;;;9.40;99.90;;;;;;4887538;29;20339;-92
2021/12/01 05:13:18;;;;;;;;;;;9.30;99.90;;;;;;4903564;29;20044;-90
2021/12/01 05:15:57;;;;;;;5.60;2.22;;;9.30;99.90;;;;;;5400364;23;19931;-90
2021/12/01 05:18:49;;;;;;;3.83;2.03;;;8.50;99.90;;;;;;5397678;23;20340;-90
2021/12/01 05:21:36;;;;;;;5.25;2.15;;;9.70;99.90;;;;;;4902302;29;20036;-90
2021/12/01 05:24:32;;;;;;;3.03;1.42;;;9.30;99.90;;;;;;5233928;23;20060;-92
2021/12/01 05:27:01;;;;;;;5.47;2.00;;;9.00;99.90;;;;;;4920062;29;20048;-91
2021/12/01 05:29:30;;;;;;;5.40;2.63;;;9.30;99.90;;;;;;4904963;29;20055;-91
2021/12/01 05:32:22;;;;;;;4.72;1.70;;;9.20;99.90;;;;;;4905170;29;20064;-92
2021/12/01 05:34:59;;;;;;;5.15;2.00;;;9.10;99.90;;;;;;4920638;29;20076;-92
2021/12/01 05:37:45;;;;;;;5.22;1.63;;;9.70;99.90;;;;;;4920147;29;20141;-92
2021/12/01 05:40:42;;;;;;;5.18;1.50;;;9.10;99.90;;;;;;4921630;29;20076;-91
2021/12/01 05:43:11;;;;;;;4.72;1.60;;;9.20;99.90;;;;;;4905197;29;20040;-89
2021/12/01 05:45:45;;;;;;;3.60;1.67;;;9.20;99.90;;;;;;4920852;28;20060;-90
2021/12/01 05:48:29;;;;;;;4.45;1.85;;;9.20;99.90;;;;;;4904618;28;20040;-89
2021/12/01 05:51:28;;;;;;;3.53;1.88;;;8.50;99.90;;;;;;4900784;29;20036;-89
2021/12/01 05:54:17;;;;;;;3.55;2.17;;;9.20;99.90;;;;;;4916726;29;20055;-89
2021/12/01 05:57:04;;;;;;;4.45;2.35;;;9.20;99.90;;;;;;5067357;23;20055;-90
2021/12/01 05:59:54;;;;;;;4.80;1.90;;;9.10;99.90;;;;;;4923193;28;20044;-90
2021/12/01 06:02:33;;;;;;;5.82;2.72;;;8.40;99.90;;;;;;4923977;28;20155;-89
2021/12/01 06:05:16;;;;;;;5.38;2.85;;;9.40;99.90;;;;;;4991474;23;20067;-89
2021/12/01 06:07:58;;;;;;;4.25;2.45;;;9.00;99.90;;;;;;4921523;29;20039;-89
2021/12/01 06:10:33;;;;;;;5.55;3.17;;;8.60;99.90;;;;;;4921975;29;20043;-89
2021/12/01 06:13:28;;;;;;;5.50;2.90;;;9.00;99.90;;;;;;4939100;28;20038;-90
2021/12/01 06:16:13;;;;;;;4.20;2.60;;;9.00;99.90;;;;;;4917801;29;20071;-89
2021/12/01 06:19:11;;;;;;;8.18;3.40;;;9.00;99.90;;;;;;4924410;29;20031;-89
2021/12/01 06:22:30;;;;;;;;;;;;;;;;;;;;;
2021/12/01 06:25:20;;;;;;;3.72;2.20;;;8.60;99.90;;;;;;4954617;28;20054;-89
2021/12/01 06:27:54;;;;;;;5.28;3.15;;;9.40;99.90;;;;;;4922621;28;20095;-89
2021/12/01 06:34:54;;;;;;;3.58;1.98;;;9.00;99.90;;;;;;5117602;23;20060;-90
2021/12/01 06:38:13;;;;;;;3.10;1.85;;;9.30;99.90;;;;;;4859066;29;20100;-89
2021/12/01 06:41:00;;;;;;;;;;;;;;;;;;;;;
2021/12/01 06:44:30;;;;;;;4.47;2.08;;;8.80;99.90;;;;;;4899169;29;20060;-89
2021/12/01 06:47:11;;;;;;;5.63;2.40;;;8.80;99.90;;;;;;4848900;29;20037;-90
2021/12/01 06:49:45;;;;;;;4.47;1.50;;;8.80;99.90;;;;;;4863039;29;20059;-90
2021/12/01 06:52:19;;;;;;;3.00;1.45;;;8.90;99.90;;;;;;4862793;29;20036;-89
2021/12/01 06:54:50;;;;;;;3.00;1.60;;;8.60;99.90;;;;;;4832704;29;20043;-88
2021/12/01 06:57:42;;;;;;;3.05;1.80;;;8.80;99.90;;;;;;4846979;29;20052;-89
2021/12/01 07:00:31;;;;;;;4.15;2.15;;;8.70;99.90;;;;;;4850171;29;20049;-89
2021/12/01 07:03:08;;;;;;;2.72;1.60;;;8.50;99.90;;;;;;4847024;29;20062;-89
2021/12/01 07:06:15;;;;;;;2.78;1.52;;;8.60;99.90;;;;;;4864040;29;20041;-90
2021/12/01 07:09:10;;;;;;;3.33;1.80;;;9.10;99.90;;;;;;4836081;29;20038;-90
2021/12/01 07:11:38;;;;;;;2.88;1.83;;;8.00;99.90;;;;;;4847332;29;20038;-89
2021/12/01 07:14:15;;;;;;;2.80;1.60;;;9.10;99.90;;;;;;4847712;29;20052;-90
2021/12/01 07:16:58;;;;;;;2.70;1.42;;;8.60;99.90;;;;;;4877969;29;20399;-90
2021/12/01 07:19:53;;;;;;;2.67;1.42;;;8.70;99.90;;;;;;4829353;29;20059;-89
2021/12/01 07:22:35;;;;;;;2.25;1.15;;;8.70;99.90;;;;;;4848896;29;20040;-90
2021/12/01 07:25:03;;;;;;;2.38;1.50;;;8.60;99.90;;;;;;4832867;29;20029;-90
2021/12/01 07:28:18;;;;;;;3.63;1.50;;;8.60;99.90;;;;;;4862512;29;20045;-89
2021/12/01 07:30:54;;;;;;;2.47;1.50;;;8.90;99.90;;;;;;4845708;29;20058;-89
2021/12/01 07:37:00;;;;;;;1.83;1.27;;;8.60;99.90;;;;;;4854732;29;20050;-90
2021/12/01 07:39:34;;;;;;;4.15;2.03;;;8.60;99.90;;;;;;4847700;29;20050;-90
2021/12/01 07:42:00;;;;;;;3.00;1.45;;;8.60;99.90;;;;;;4847779;29;20037;-90
2021/12/01 07:44:29;;;;;;;3.47;1.73;;;8.60;99.90;;;;;;4863185;29;20041;-90
2021/12/01 07:47:01;;;;;;;4.20;2.03;;;8.10;99.90;;;;;;4879623;29;20040;-90
2021/12/01 07:49:33;;;;;;;5.90;2.15;;;8.70;99.90;;;;;;4849548;29;20037;-89
2021/12/01 07:52:03;;;;;;;5.82;2.88;;;8.50;99.90;;;;;;4851710;29;20045;-89
2021/12/01 07:54:33;;;;;;;4.70;2.63;;;8.60;99.90;;;;;;4881612;29;20073;-90
2021/12/01 07:57:07;;;;;;;4.90;3.00;;;8.70;99.90;;;;;;4851811;29;20029;-89
2021/12/01 07:59:37;;;;;;;5.22;3.08;;;8.70;99.90;;;;;;4866846;29;20030;-89
2021/12/01 08:02:08;;;;;;;4.60;2.55;;;8.90;99.90;;;;;;4851020;29;20036;-88
2021/12/01 08:04:40;;;;;;;4.25;2.50;;;8.70;99.90;;;;;;4850631;29;20062;-89
2021/12/01 08:07:13;;;;;;;4.63;3.35;;;8.70;99.90;;;;;;4851482;29;20037;-90
2021/12/01 08:09:44;;;;;;;5.22;3.30;;;9.10;99.90;;;;;;4850842;29;20070;-89
2021/12/01 08:12:17;;;;;;;7.68;4.13;;;8.30;99.90;;;;;;4851203;29;20065;-89
2021/12/01 08:14:46;;;;;;;6.97;3.22;;;8.70;99.90;;;;;;4866198;29;20149;-89
2021/12/01 08:17:19;;;;;;;7.45;3.45;;;8.80;99.90;;;;;;4850280;29;20053;-89
2021/12/01 08:20:26;;;;;;;7.75;4.13;;;9.20;99.90;;;;;;4850798;29;20070;-89
2021/12/01 08:23:10;;;;;;;9.75;5.60;;;9.60;99.90;;;;;;4846951;29;20053;-89
2021/12/01 08:28:38;;;;;;;9.13;5.30;;;8.30;99.90;;;;;;4863878;29;20037;-89
2021/12/01 08:31:10;;;;;;;9.00;4.75;;;8.70;99.90;;;;;;4848465;29;20062;-89
2021/12/01 08:33:36;;;;;;;7.30;4.35;;;8.20;99.90;;;;;;4847225;29;20082;-89
2021/12/01 08:36:04;;;;;;;9.65;5.10;;;8.80;99.90;;;;;;4846578;29;20045;-90
2021/12/01 08:38:44;;;;;;;6.20;3.38;;;8.80;99.90;;;;;;4849319;29;20029;-89
2021/12/01 08:41:14;;;;;;;9.20;4.55;;;8.70;99.90;;;;;;4862398;29;20041;-89
2021/12/01 08:43:58;;;;;;;7.70;3.00;;;9.20;99.90;;;;;;4865942;29;20049;-89
2021/12/01 08:46:28;;;;;;;9.65;3.50;;;9.20;99.90;;;;;;4865138;29;20088;-89
2021/12/01 08:48:58;;;;;;;6.15;3.35;;;8.20;99.90;;;;;;4851429;29;20047;-89
2021/12/01 08:51:35;;;;;;;8.30;3.05;;;9.60;99.90;;;;;;4836498;29;20054;-89
2021/12/01 08:54:15;;;;;;;6.85;2.60;;;9.30;99.90;;;;;;4866647;29;20077;-89
2021/12/01 08:56:51;;;;;;;9.48;3.33;;;8.80;99.90;;;;;;4845722;29;20041;-88
2021/12/01 08:59:20;;;;;;;6.68;2.20;;;8.80;99.90;;;;;;4848927;29;20053;-89
2021/12/01 09:01:46;;;;;;;11.63;2.55;;;8.70;99.90;;;;;;4846795;29;20061;-88
2021/12/01 09:04:17;;;;;;;15.07;4.28;;;9.20;99.90;;;;;;4863025;29;20026;-89
2021/12/01 09:06:43;;;;;;;15.43;2.13;;;9.10;99.90;;;;;;4848705;29;20065;-88
2021/12/01 09:09:17;;;;;;;11.52;2.35;;;9.00;99.90;;;;;;4848776;29;20038;-88
2021/12/01 09:11:56;;;;;;;10.93;2.13;;;8.70;99.90;;;;;;4848479;29;20041;-89
2021/12/01 09:14:26;;;;;;;13.40;2.00;;;9.40;99.90;;;;;;4864291;29;20053;-88
2021/12/01 09:17:04;;;;;;;8.60;1.83;;;9.30;99.90;;;;;;4863851;29;20061;-88
2021/12/01 09:19:32;;;;;;;;;;;8.70;99.90;;;;;;4833296;29;20034;-88
2021/12/01 09:22:25;;;;;;;5.93;1.38;;;9.30;99.90;;;;;;4849469;29;19928;-88
2021/12/01 09:24:56;;;;;;;10.20;1.92;;;8.80;99.90;;;;;;4849091;29;20029;-88
2021/12/01 09:27:47;;;;;;;11.98;1.80;;;8.70;99.90;;;;;;4846869;29;20041;-88
2021/12/01 09:30:21;;;;;;;9.07;2.83;;;8.80;99.90;;;;;;4850114;29;20041;-88
2021/12/01 09:32:57;;;;;;;12.07;2.47;;;8.70;99.90;;;;;;4863961;29;20524;-88
2021/12/01 09:35:34;;;;;;;9.00;1.50;;;8.70;99.90;;;;;;4853455;29;20116;-88
2021/12/01 09:38:30;;;;;;;5.45;1.10;;;8.60;99.90;;;;;;4884746;29;20069;-89
2021/12/01 09:41:11;;;;;;;10.32;1.98;;;8.50;99.90;;;;;;4883913;29;20093;-89
2021/12/01 09:43:52;;;;;;;9.30;1.45;;;8.30;99.90;;;;;;4883246;29;20052;-89
2021/12/01 09:46:20;;;;;;;11.45;1.50;;;8.30;99.90;;;;;;4866977;29;20048;-89
2021/12/01 09:48:50;;;;;;;18.10;1.63;;;8.80;99.90;;;;;;4867010;29;20133;-88
2021/12/01 09:51:20;;;;;;;6.90;1.52;;;8.80;99.90;;;;;;4867231;29;20025;-88
2021/12/01 09:53:54;;;;;;;8.20;1.98;;;7.80;99.90;;;;;;4866767;29;20077;-89
2021/12/01 09:56:36;;;;;;;14.35;1.77;;;8.30;99.90;;;;;;4882497;29;20037;-88
2021/12/01 09:59:21;;;;;;;16.65;2.40;;;8.30;99.90;;;;;;4883367;29;20135;-88
2021/12/01 10:01:53;;;;;;;11.35;1.40;;;8.40;99.90;;;;;;4882430;29;20041;-89
2021/12/01 10:04:19;;;;;;;10.40;1.67;;;8.40;99.90;;;;;;4867626;29;20206;-88
2021/12/01 10:06:46;;;;;;;6.00;1.70;;;8.10;99.90;;;;;;4867363;29;20045;-88
2021/12/01 10:09:14;;;;;;;12.20;2.10;;;8.40;99.90;;;;;;4852487;29;20045;-89
2021/12/01 10:11:44;;;;;;;16.13;1.92;;;8.40;99.90;;;;;;4867529;29;20040;-88
2021/12/01 10:14:18;;;;;;;20.47;2.00;;;9.20;99.90;;;;;;4869743;29;20069;-88
2021/12/01 10:16:55;;;;;;;13.45;2.47;;;8.30;99.90;;;;;;4883009;29;20041;-88
2021/12/01 10:19:21;;;;;;;7.95;1.63;;;8.10;99.90;;;;;;4867784;29;20028;-88
2021/12/01 10:22:00;;;;;;;13.90;2.63;;;8.40;99.90;;;;;;4867363;29;20044;-88
2021/12/01 10:24:51;;;;;;;;;;;;;;;;;;;;;
2021/12/01 10:27:37;;;;;;;13.50;2.38;;;8.50;99.90;;;;;;4882959;29;20714;-88
2021/12/01 10:30:34;;;;;;;10.75;1.80;;;8.70;99.90;;;;;;4882924;29;20041;-88
2021/12/01 10:35:36;;;;;;;11.80;2.45;;;8.60;99.90;;;;;;4934154;29;20072;-88
2021/12/01 10:38:05;;;;;;;14.00;2.65;;;9.00;99.90;;;;;;4919026;29;20048;-87
2021/12/01 10:40:42;;;;;;;22.77;4.07;;;8.50;99.90;;;;;;4935576;29;20056;-87
2021/12/01 10:43:11;;;;;;;16.70;2.17;;;8.60;99.90;;;;;;4919447;29;20108;-87
2021/12/01 10:45:47;;;;;;;18.27;2.67;;;8.70;99.90;;;;;;4902821;28;20059;-87
2021/12/01 10:48:29;;;;;;;14.55;2.55;;;8.10;99.90;;;;;;4903486;28;20046;-87
2021/12/01 10:51:07;;;;;;;26.75;3.40;;;8.50;99.90;;;;;;4919145;28;20057;-88
2021/12/01 10:53:43;;;;;;;12.35;1.88;;;8.50;99.90;;;;;;4919664;28;20062;-88
2021/12/01 10:56:15;;;;;;;12.35;2.00;;;7.70;99.90;;;;;;5031330;23;20540;31
2021/12/01 10:58:56;;;;;;;9.88;1.67;;;8.80;99.90;;;;;;4861490;29;20041;-88
2021/12/01 11:01:43;;;;;;;19.33;2.25;;;8.20;99.90;;;;;;5022009;23;20048;-88
2021/12/01 11:04:12;;;;;;;13.45;2.25;;;7.70;99.90;;;;;;4866931;29;20100;-87
2021/12/01 11:06:45;;;;;;;12.13;2.80;;;8.20;99.90;;;;;;4866880;29;20052;-88
2021/12/01 11:09:22;;;;;;;10.07;1.52;;;8.20;99.90;;;;;;4866100;29;20033;-88
2021/12/01 11:11:52;;;;;;;23.98;3.60;;;8.20;99.90;;;;;;4866618;29;20029;-88
2021/12/01 11:14:44;;;;;;;14.80;1.88;;;8.80;99.90;;;;;;4883199;29;20081;-89
2021/12/01 11:17:18;;;;;;;18.88;2.58;;;8.60;99.90;;;;;;4881390;29;20041;-89
2021/12/01 11:20:01;;;;;;;;;;;;;;;;;;;;;
2021/12/01 11:22:31;;;;;;;10.23;1.80;;;8.20;99.90;;;;;;4879300;29;20061;-88
2021/12/01 11:25:20;;;;;;;11.38;2.17;;;8.20;99.90;;;;;;4868713;29;20052;-87
2021/12/01 11:27:46;;;;;;;11.80;2.55;;;8.20;99.90;;;;;;4869449;29;20044;-88
2021/12/01 11:30:15;;;;;;;9.55;1.63;;;7.70;99.90;;;;;;4884478;29;20056;-89
2021/12/01 11:32:47;;;;;;;16.60;3.10;;;8.30;99.90;;;;;;4885854;29;20126;-88
2021/12/01 11:35:13;;;;;;;14.05;3.28;;;8.40;99.90;;;;;;4868974;29;20045;-88
2021/12/01 11:37:47;;;;;;;12.93;2.88;;;8.70;99.90;;;;;;4869021;29;20327;-88
2021/12/01 11:40:34;;;;;;;15.93;2.35;;;8.60;99.90;;;;;;4899781;29;20028;-89
2021/12/01 11:43:10;;;;;;;17.98;1.85;;;8.40;99.90;;;;;;4883904;29;20049;-88
2021/12/01 11:45:44;;;;;;;27.95;4.05;;;8.40;99.90;;;;;;4875188;29;20299;-88
2021/12/01 11:48:17;;;;;;;17.38;3.13;;;8.70;99.90;;;;;;4865417;29;20077;-88
2021/12/01 11:50:55;;;;;;;22.88;3.45;;;8.80;99.90;;;;;;4850418;29;20056;-88
2021/12/01 11:56:45;;;;;;;19.33;3.35;;;9.10;99.90;;;;;;4873710;29;20061;-88
2021/12/01 11:59:35;;;;;;;18.70;3.35;;;7.80;99.90;;;;;;4880522;29;20066;-88
2021/12/01 12:02:49;;;;;;;19.92;3.40;;;8.40;99.90;;;;;;4876592;29;20071;-88
2021/12/01 12:05:27;;;;;;;20.55;3.58;;;7.80;99.90;;;;;;4864939;29;20101;-89
2021/12/01 12:07:55;;;;;;;18.00;4.03;;;8.40;99.90;;;;;;4864867;29;20043;-88
2021/12/01 12:10:39;;;;;;;24.38;5.05;;;8.30;99.90;;;;;;4865256;29;20100;-88
2021/12/01 12:13:09;;;;;;;17.50;3.20;;;8.00;99.90;;;;;;4880144;29;20044;-89
2021/12/01 12:15:41;;;;;;;29.15;3.90;;;8.20;99.90;;;;;;4864432;29;20097;-88
2021/12/01 12:18:13;;;;;;;16.58;3.63;;;7.80;99.90;;;;;;4864810;29;20060;-88
2021/12/01 12:20:52;;;;;;;20.35;4.45;;;7.40;99.90;;;;;;4864619;29;20033;-88
2021/12/01 12:23:33;;;;;;;18.58;3.72;;;7.60;99.90;;;;;;4864344;29;20065;-88
2021/12/01 12:26:12;;;;;;;25.98;3.85;;;7.50;99.90;;;;;;4849335;29;20040;-88
2021/12/01 12:28:40;;;;;;;18.48;3.75;;;7.30;99.90;;;;;;4863924;29;20141;-88
2021/12/01 12:31:24;;;;;;;19.60;4.20;;;7.70;99.90;;;;;;4865263;29;20144;-88
2021/12/01 12:33:56;;;;;;;17.52;3.78;;;7.30;99.90;;;;;;4863877;29;20034;-88
2021/12/01 12:39:28;;;;;;;26.65;4.00;;;7.40;99.90;;;;;;4958084;23;20064;-88
2021/12/01 12:42:05;;;;;;;18.65;2.42;;;7.50;99.90;;;;;;4931668;28;20046;-88
2021/12/01 12:44:40;;;;;;;12.05;2.30;;;7.80;99.90;;;;;;4922537;29;20051;-88
2021/12/01 12:47:38;;;;;;;17.95;4.43;;;7.60;99.90;;;;;;4903801;28;20036;-88
2021/12/01 12:50:38;;;;;;;14.85;2.92;;;7.70;99.90;;;;;;4904318;28;20040;-88
2021/12/01 12:53:31;;;;;;;19.00;4.40;;;7.70;99.90;;;;;;4920169;28;20075;-88
2021/12/01 12:56:25;;;;;;;16.23;3.35;;;7.70;99.90;;;;;;4904324;28;20071;-88
2021/12/01 12:59:38;;;;;;;18.45;2.92;;;7.80;99.90;;;;;;4888950;28;20068;-88
2021/12/01 13:02:36;;;;;;;17.23;2.42;;;7.70;99.90;;;;;;4895664;29;20149;-88
2021/12/01 13:05:31;;;;;;;9.63;1.95;;;7.70;99.90;;;;;;4882931;29;20077;-88
2021/12/01 13:08:40;;;;;;;14.82;3.00;;;7.60;99.90;;;;;;4898545;29;20083;-87
2021/12/01 13:11:28;;;;;;;21.50;3.10;;;7.70;99.90;;;;;;4867364;29;20130;-88
2021/12/01 13:14:08;;;;;;;16.15;2.88;;;7.80;99.90;;;;;;4868574;29;20105;-88
2021/12/01 13:16:40;;;;;;;16.13;2.65;;;7.60;99.90;;;;;;4867238;29;20068;-87
2021/12/01 13:19:13;;;;;;;12.13;2.17;;;8.20;99.90;;;;;;4866858;29;20063;-88
2021/12/01 13:25:01;;;;;;;18.98;2.88;;;7.80;99.90;;;;;;5044090;23;20062;-87
2021/12/01 13:27:42;;;;;;;16.27;2.28;;;8.00;99.90;;;;;;4923014;28;20032;-87
2021/12/01 13:30:12;;;;;;;16.00;3.28;;;7.80;99.90;;;;;;4922937;28;20035;-87
2021/12/01 13:32:41;;;;;;;18.73;3.03;;;7.70;99.90;;;;;;4923424;28;20067;-87
2021/12/01 13:35:09;;;;;;;20.65;2.35;;;7.70;99.90;;;;;;4921809;28;20067;-87
2021/12/01 13:37:41;;;;;;;11.48;2.38;;;7.80;99.90;;;;;;4948623;28;20470;-86
2021/12/01 13:40:09;;;;;;;23.67;2.95;;;7.90;99.90;;;;;;4902744;28;20080;-86
2021/12/01 13:42:35;;;;;;;12.60;2.45;;;7.80;99.90;;;;;;4903411;28;20024;-88
2021/12/01 13:45:01;;;;;;;9.52;2.70;;;7.50;99.90;;;;;;4885513;28;20040;-87
2021/12/01 13:47:34;;;;;;;13.73;2.47;;;7.50;99.90;;;;;;4884529;29;20044;-87
2021/12/01 13:50:07;;;;;;;11.88;2.83;;;7.80;99.90;;;;;;4885007;29;20040;-88
2021/12/01 13:52:41;;;;;;;11.95;2.53;;;8.50;99.90;;;;;;4885975;29;20064;-88
2021/12/01 13:55:19;;;;;;;25.83;2.33;;;8.60;99.90;;;;;;4885855;29;20043;-87
2021/12/01 13:57:56;;;;;;;17.52;2.30;;;7.80;99.90;;;;;;4901111;29;20028;-89
2021/12/01 14:00:49;;;;;;;16.95;2.90;;;7.60;99.90;;;;;;4885199;29;20052;-88
2021/12/01 14:03:53;;;;;;;16.60;2.97;;;7.50;99.90;;;;;;4900996;29;20263;-88
2021/12/01 14:06:27;;;;;;;15.73;1.88;;;7.30;99.90;;;;;;4882449;29;20056;-88
2021/12/01 14:09:08;;;;;;;11.55;2.60;;;7.60;99.90;;;;;;4882416;29;20029;-88
2021/12/01 14:11:40;;;;;;;15.50;2.80;;;6.60;99.90;;;;;;4882736;29;20064;-88
2021/12/01 14:14:15;;;;;;;9.20;1.70;;;7.40;99.90;;;;;;4900316;29;20032;-87
2021/12/01 14:16:54;;;;;;;7.97;2.05;;;7.20;99.90;;;;;;4900567;29;20033;-87
2021/12/01 14:19:27;;;;;;;19.77;2.72;;;7.00;99.90;;;;;;4900306;29;20040;-83
2021/12/01 14:22:12;;;;;;;7.90;1.42;;;6.20;99.90;;;;;;4895718;29;20054;-88
2021/12/01 14:24:53;;;;;;;7.55;1.35;;;7.00;99.90;;;;;;4901434;29;20095;-87
2021/12/01 14:27:28;;;;;;;11.93;2.00;;;7.00;99.90;;;;;;4886011;29;20118;-87
2021/12/01 14:30:01;;;;;;;13.93;3.37;;;7.20;99.90;;;;;;4885979;29;20040;-88
2021/12/01 14:32:29;;;;;;;12.77;3.72;;;6.80;99.90;;;;;;4885907;29;20044;-87
2021/12/01 14:35:05;;;;;;;19.13;2.88;;;6.90;99.90;;;;;;4885872;29;20036;-87
2021/12/01 14:37:35;;;;;;;10.60;2.40;;;6.80;99.90;;;;;;4901649;29;20032;-87
2021/12/01 14:40:20;;;;;;;16.77;2.67;;;6.30;99.90;;;;;;4901459;29;20043;-87
2021/12/01 14:42:52;;;;;;;11.10;1.45;;;7.40;99.90;;;;;;4886046;29;20057;-87
2021/12/01 14:45:21;;;;;;;21.25;2.45;;;6.60;99.90;;;;;;4885789;29;20091;-87
2021/12/01 14:48:08;;;;;;;16.10;3.78;;;6.50;99.90;;;;;;4885603;29;20055;-87
2021/12/01 14:50:39;;;;;;;17.90;2.95;;;6.60;99.90;;;;;;4885829;29;20044;-87
2021/12/01 14:53:14;;;;;;;14.93;3.47;;;6.60;99.90;;;;;;4885670;29;20036;-87
2021/12/01 14:55:45;;;;;;;12.55;1.85;;;6.60;99.90;;;;;;4901429;29;20029;-87
2021/12/01 14:58:14;;;;;;;17.55;4.18;;;6.90;99.90;;;;;;4884986;29;20100;-87
2021/12/01 15:00:48;;;;;;;19.40;3.45;;;6.40;99.90;;;;;;4900857;29;20044;-87
2021/12/01 15:03:18;;;;;;;15.18;2.75;;;7.00;99.90;;;;;;4885767;29;20089;-87
2021/12/01 15:05:55;;;;;;;10.27;2.90;;;6.40;99.90;;;;;;4885321;29;20080;-87
2021/12/01 15:08:26;;;;;;;19.50;3.40;;;6.40;99.90;;;;;;4885516;29;20040;-86
2021/12/01 15:10:52;;;;;;;16.45;3.85;;;6.40;99.90;;;;;;4884749;29;20060;-87
2021/12/01 15:13:21;;;;;;;19.92;3.45;;;5.60;99.90;;;;;;4884240;29;20155;-86
2021/12/01 15:16:03;;;;;;;11.75;3.08;;;6.10;99.90;;;;;;4901157;29;20040;-86
2021/12/01 15:18:36;;;;;;;12.07;2.92;;;6.00;99.90;;;;;;4885588;29;20075;-87
2021/12/01 15:21:07;;;;;;;16.02;2.33;;;6.10;99.90;;;;;;4885239;29;20040;-86
2021/12/01 15:23:46;;;;;;;13.18;2.05;;;6.10;99.90;;;;;;4884400;29;20048;-86
2021/12/01 15:26:22;;;;;;;18.88;3.55;;;6.20;99.90;;;;;;4884937;29;20042;-86
2021/12/01 15:28:50;;;;;;;28.38;3.70;;;5.50;99.90;;;;;;4883463;29;20044;-86
2021/12/01 15:31:19;;;;;;;11.50;2.22;;;6.60;99.90;;;;;;4884245;29;20028;-86
2021/12/01 15:33:45;;;;;;;22.38;2.90;;;6.90;99.90;;;;;;4884682;29;20032;-86
2021/12/01 15:36:12;;;;;;;11.18;2.42;;;6.10;99.90;;;;;;4895506;29;20068;-87
2021/12/01 15:38:38;;;;;;;11.70;3.13;;;5.90;99.90;;;;;;4898387;29;20069;-87
2021/12/01 15:41:05;;;;;;;11.73;2.17;;;6.50;99.90;;;;;;4883297;29;20077;-87
2021/12/01 15:43:31;;;;;;;18.67;3.50;;;5.80;99.90;;;;;;4898720;29;20037;-86
2021/12/01 15:45:57;;;;;;;13.80;2.30;;;6.00;99.90;;;;;;4880043;29;20124;-85
2021/12/01 15:48:23;;;;;;;13.32;2.17;;;5.70;99.90;;;;;;4880975;29;20048;-86
2021/12/01 15:50:50;;;;;;;20.58;3.00;;;5.70;99.90;;;;;;4881647;29;20104;-86
2021/12/01 15:53:15;;;;;;;10.63;2.20;;;5.80;99.90;;;;;;4881523;29;20068;-85
2021/12/01 15:55:42;;;;;;;19.55;3.50;;;5.70;99.90;;;;;;4880793;29;20032;-86
2021/12/01 15:58:08;;;;;;;;;;;5.70;99.90;;;;;;4881155;29;20623;-85
2021/12/01 16:00:35;;;;;;;20.85;3.67;;;5.70;99.90;;;;;;4880888;29;19927;-86
2021/12/01 16:03:01;;;;;;;17.63;3.50;;;5.70;99.90;;;;;;4881761;29;20109;-86